Flight Track Log - Related Links

Times and Time Zones

All times are in EDT time to prevent confusion due to time zone crossing. See the RPA3436 flight status page for this flight to view local times or setup timezone preferences in your user account.

Time Position Orientation Groundspeed Altitude Reporting Facility
EDT Latitude Longitude Course Direction KTS MPH feet Rate Location/Type
Sat 07:46:41 AM 39.6833 -86.3167 74° East 140 161 2,100  Level Indianapolis TRACON
Sat 07:47:29 AM 39.6667 -86.3500 237° Southwest 158 182 3,800 1,888 Climbing Indianapolis TRACON
Sat 07:48:00 AM 39.7708 -85.9090 83° East  Level FlightAware Approximate
Sat 07:48:10 AM 39.6239 -86.3431 173° South 212 244 4,900  Level Indianapolis Center
Sat 07:49:00 AM 39.7836 -85.7817 79° East  Level FlightAware Approximate
Sat 07:49:10 AM 39.6328 -86.2617 82° East 234 269 7,600  Level Indianapolis Center
Sat 07:50:00 AM 39.8030 -85.6558 79° East  Level FlightAware Approximate
Sat 07:50:11 AM 39.6550 -86.1739 72° East 258 297 9,900  Level Indianapolis Center
Sat 07:51:00 AM 39.8247 -85.5306 74° East  Level FlightAware Approximate
Sat 07:51:12 AM 39.6853 -86.0506 72° East 305 351 12,100  Level Indianapolis Center
Sat 07:52:13 AM 39.7131 -85.9383 72° East 325 374 14,500 2,262 Climbing Indianapolis Center
Sat 07:53:14 AM 39.7419 -85.8228 72° East 337 388 16,700 2,132 Climbing Indianapolis Center
Sat 07:54:14 AM 39.7711 -85.7050 72° East 343 395 18,800 1,983 Climbing Indianapolis Center
Sat 07:55:15 AM 39.7997 -85.5856 73° East 348 400 20,700 1,721 Climbing Indianapolis Center
Sat 07:56:16 AM 39.8292 -85.4628 73° East 355 409 22,300 1,525 Climbing Indianapolis Center
Sat 07:57:17 AM 39.8606 -85.3375 72° East 362 417 23,800 1,289 Climbing Indianapolis Center
Sat 07:58:17 AM 39.8867 -85.2058 75° East 372 428 24,900 1,140 Climbing Indianapolis Center
Sat 07:59:18 AM 39.8881 -85.0631 89° East 385 443 26,100 1,377 Climbing Indianapolis Center
Sat 08:00:19 AM 39.8889 -84.9164 90° East 397 457 27,700 1,672 Climbing Indianapolis Center
Sat 08:01:20 AM 39.8908 -84.7658 89° East 407 468 29,500 1,574 Climbing Indianapolis Center
Sat 08:02:21 AM 39.8914 -84.6133 90° East 414 476 30,900 1,377 Climbing Indianapolis Center
Sat 08:03:22 AM 39.8908 -84.4617 90° East 421 484 32,300 1,033 Climbing Indianapolis Center
Sat 08:04:23 AM 39.8911 -84.2753 90° East 428 493 33,000 347 Climbing Indianapolis Center
Sat 08:05:23 AM 39.8919 -84.1189 90° East 433 498 33,000  Level Indianapolis Center
Sat 08:06:24 AM 39.8919 -83.9642 90° East 429 494 33,000  Level Indianapolis Center
Sat 08:07:25 AM 39.8914 -83.8094 90° East 427 491 33,000  Level Indianapolis Center
Sat 08:08:26 AM 39.8917 -83.6558 90° East 425 489 33,000  Level Indianapolis Center
Sat 08:09:27 AM 39.8908 -83.5058 90° East 426 490 33,000  Level Indianapolis Center
Sat 08:10:28 AM 39.8906 -83.3494 90° East 430 495 33,000  Level Indianapolis Center
Sat 08:11:29 AM 39.8886 -83.1769 91° East 430 495 33,000  Level Indianapolis Center
Sat 08:12:30 AM 39.8875 -83.0208 90° East 430 495 33,000  Level Indianapolis Center
Sat 08:13:31 AM 39.8858 -82.8658 91° East 429 494 33,000  Level Indianapolis Center
Sat 08:14:31 AM 39.8844 -82.7108 91° East 429 494 33,000  Level Indianapolis Center
Sat 08:15:32 AM 39.8786 -82.5542 93° East 433 498 33,000  Level Indianapolis Center
Sat 08:16:33 AM 39.8531 -82.4017 102° East 430 495 33,000  Level Indianapolis Center
Sat 08:17:34 AM 39.8300 -82.2500 101° East 430 495 33,000  Level Indianapolis Center
Sat 08:18:35 AM 39.8069 -82.1017 101° East 421 484 33,000  Level Indianapolis Center
Sat 08:19:36 AM 39.7828 -81.9542 102° East 418 481 33,000  Level Indianapolis Center
Sat 08:20:37 AM 39.7581 -81.8042 102° East 423 487 33,000  Level Indianapolis Center
Sat 08:21:38 AM 39.7336 -81.6533 102° East 425 489 33,000  Level Indianapolis Center
Sat 08:22:39 AM 39.7092 -81.5003 102° East 432 497 33,000  Level Indianapolis Center
Sat 08:23:40 AM 39.6803 -81.3292 102° East 430 495 33,000  Level Indianapolis Center
Sat 08:24:41 AM 39.6553 -81.1769 102° East 430 495 33,000  Level Indianapolis Center
Sat 08:25:42 AM 39.6294 -81.0250 102° East 430 495 33,000  Level Indianapolis Center
Sat 08:26:43 AM 39.6039 -80.8731 102° East 430 495 33,000 -195 Level Indianapolis Center
Sat 08:27:45 AM 39.5767 -80.7200 103° East 433 498 32,600 -443 Descending Indianapolis Center
Sat 08:28:45 AM 39.5344 -80.5731 110° East 433 498 32,100 -496 Descending Indianapolis Center
Sat 08:29:46 AM 39.4886 -80.4289 112° Southeast 434 499 31,600 -492 Descending Indianapolis Center
Sat 08:30:47 AM 39.4422 -80.2822 112° Southeast 436 502 31,100 -295 Descending Indianapolis Center
Sat 08:31:48 AM 39.3958 -80.1397 113° Southeast 431 496 31,000 -49 Descending Indianapolis Center
Sat 08:32:49 AM 39.3497 -79.9961 113° Southeast 431 496 31,000  Level Indianapolis Center
Sat 08:33:46 AM 39.3069 -79.8539 111° Southeast 428 493 31,000  Level Washington Center
Sat 08:34:47 AM 39.2872 -79.7053 100° East 423 487 31,000  Level Washington Center
Sat 08:35:44 AM 39.2756 -79.5517 96° East 418 481 31,000 -200 Level Washington Center
Sat 08:36:47 AM 39.2639 -79.3983 96° East 418 481 30,600 -1,100 Descending Washington Center
Sat 08:37:44 AM 39.2531 -79.2744 96° East 429 494 28,800 -1,831 Descending Washington Center
Sat 08:38:45 AM 39.2333 -79.1019 98° East 434 499 27,000 -1,488 Descending Washington Center
Sat 08:39:45 AM 39.2192 -78.9406 96° East 445 512 25,800 -1,785 Descending Washington Center
Sat 08:40:46 AM 39.2047 -78.7817 97° East 445 512 23,400 -2,479 Descending Washington Center
Sat 08:41:46 AM 39.1919 -78.6311 96° East 439 505 20,800 -2,430 Descending Washington Center
Sat 08:42:47 AM 39.1767 -78.4861 98° East 426 490 18,500 -1,884 Descending Washington Center
Sat 08:43:47 AM 39.1592 -78.3433 99° East 406 467 17,000 -763 Descending Washington Center
Sat 08:44:45 AM 39.1247 -78.2083 108° East 393 452 17,000 -151 Level Washington Center
Sat 08:45:46 AM 39.0900 -78.0761 109° East 393 452 16,700 -1,131 Descending Washington Center
Sat 08:46:47 AM 39.0572 -77.9467 108° East 387 445 14,700 -2,067 Descending Washington Center
Sat 08:47:45 AM 39.0242 -77.8119 107° East 375 432 12,600 -2,085 Descending Washington Center
Sat 08:48:45 AM 38.9931 -77.6936 109° East 351 404 10,600 -1,740 Descending Washington Center
Sat 08:49:25 AM 38.9667 -77.6167 114° Southeast 312 359 9,700 -1,500 Descending Potomac TRACON
Sat 08:50:25 AM 38.9500 -77.5167 102° East 296 341 8,100 -1,105 Descending Potomac TRACON
Sat 08:51:19 AM 38.9667 -77.4500 72° East 267 307 7,600 -939 Descending Potomac TRACON
Sat 08:52:20 AM 39.0000 -77.3500 67° East 260 299 6,300 -893 Descending Potomac TRACON
Sat 08:53:20 AM 39.0000 -77.2667 90° East 210 242 5,800 -850 Descending Potomac TRACON
Sat 08:54:20 AM 38.9833 -77.2167 113° Southeast 191 220 4,600 -1,350 Descending Potomac TRACON
Sat 08:55:20 AM 38.9667 -77.1500 108° East 187 215 3,100 -1,488 Descending Potomac TRACON
Sat 08:56:21 AM 38.9333 -77.1167 142° Southeast 176 203 1,600 -1,091 Descending Potomac TRACON
Sat 08:57:21 AM 38.9000 -77.0833 142° Southeast 130 150 900 -650 Descending Potomac TRACON
Sat 08:58:21 AM 38.8667 -77.0500 142° Southeast 127 146 300 -600 Descending Potomac TRACON

Login

Don't have an account? Register now (free) for customized features, flight alerts, and more!